Time;durP1;ratioP1;P1;durP2;ratioP2;P2;SDS_P1;SDS_P2;PMS_P1;PMS_P2;Temp;Humidity;BMP_temperature;BMP_pressure;BME280_temperature;BME280_humidity;BME280_pressure;Samples;Min_cycle;Max_cycle;Signal;HPM_P1;HPM_P2
2023/08/10 00:01:51;;;;;;;3.93;1.03;;;;;;;;;;5013068;28;20179;-80
2023/08/10 00:04:17;;;;;;;2.87;0.97;;;;;;;;;;5013048;28;20919;-79
2023/08/10 00:06:43;;;;;;;2.63;0.50;;;;;;;;;;5013037;28;20860;-79
2023/08/10 00:09:10;;;;;;;4.23;0.60;;;;;;;;;;5012945;28;20423;-80
2023/08/10 00:11:36;;;;;;;2.97;0.90;;;;;;;;;;5000167;28;20428;-80
2023/08/10 00:14:03;;;;;;;4.60;1.00;;;;;;;;;;4993301;28;20415;-80
2023/08/10 00:16:29;;;;;;;1.93;0.67;;;;;;;;;;4991978;28;20227;-80
2023/08/10 00:18:55;;;;;;;3.00;1.10;;;;;;;;;;4993319;28;20493;-79
2023/08/10 00:21:21;;;;;;;4.00;0.70;;;;;;;;;;4993300;28;20174;-80
2023/08/10 00:23:47;;;;;;;2.47;0.60;;;;;;;;;;4993386;28;20456;-80
2023/08/10 00:26:13;;;;;;;4.47;0.80;;;;;;;;;;4993237;28;20401;-79
2023/08/10 00:28:39;;;;;;;2.50;0.70;;;;;;;;;;4991575;28;20457;-80
2023/08/10 00:31:05;;;;;;;4.37;0.97;;;;;;;;;;4993261;28;20251;-80
2023/08/10 00:33:31;;;;;;;2.63;1.20;;;;;;;;;;4991342;28;20926;-79
2023/08/10 00:35:59;;;;;;;4.43;1.03;;;;;;;;;;5002085;28;20897;-79
2023/08/10 00:38:24;;;;;;;3.00;1.10;;;;;;;;;;5012254;28;20429;-80
2023/08/10 00:40:50;;;;;;;2.47;0.80;;;;;;;;;;5012169;28;20982;-79
2023/08/10 00:43:16;;;;;;;3.63;1.63;;;;;;;;;;5012124;28;20180;-79
2023/08/10 00:45:45;;;;;;;1.60;1.13;;;;;;;;;;5012538;28;20577;-79
2023/08/10 00:48:11;;;;;;;5.07;2.03;;;;;;;;;;5012371;28;20471;-79
2023/08/10 00:50:38;;;;;;;1.70;0.70;;;;;;;;;;5012333;28;20458;-80
2023/08/10 00:53:10;;;;;;;1.90;1.00;;;;;;;;;;5012357;28;20412;-79
2023/08/10 00:55:36;;;;;;;2.47;1.13;;;;;;;;;;5012443;28;20418;-79
2023/08/10 00:58:02;;;;;;;3.57;0.53;;;;;;;;;;5013208;28;20479;-79
2023/08/10 01:00:28;;;;;;;3.30;0.97;;;;;;;;;;5015923;28;20411;-79
2023/08/10 01:02:54;;;;;;;3.90;0.60;;;;;;;;;;5015896;28;20772;-79
2023/08/10 01:05:20;;;;;;;4.53;1.00;;;;;;;;;;5014497;28;20408;-80
2023/08/10 01:07:55;;;;;;;2.40;0.90;;;;;;;;;;5014318;28;20188;-80
2023/08/10 01:10:33;;;;;;;2.90;0.90;;;;;;;;;;5014391;28;20449;-79
2023/08/10 01:13:18;;;;;;;3.43;0.90;;;;;;;;;;5015165;28;20470;-80
2023/08/10 01:15:47;;;;;;;6.93;1.30;;;;;;;;;;5015606;28;20759;-79
2023/08/10 01:18:15;;;;;;;4.17;0.63;;;;;;;;;;5015403;28;20473;-80
2023/08/10 01:20:43;;;;;;;1.40;0.70;;;;;;;;;;5014523;28;20412;-80
2023/08/10 01:23:27;;;;;;;2.10;0.60;;;;;;;;;;5015218;28;20730;-79
2023/08/10 01:25:53;;;;;;;3.60;0.53;;;;;;;;;;5015589;28;20417;-80
2023/08/10 01:28:19;;;;;;;4.30;0.60;;;;;;;;;;5015237;28;20835;-79
2023/08/10 01:30:45;;;;;;;3.23;1.20;;;;;;;;;;5015539;28;20443;-80
2023/08/10 01:33:13;;;;;;;4.60;0.87;;;;;;;;;;5015444;28;20500;-80
2023/08/10 01:35:39;;;;;;;2.40;1.33;;;;;;;;;;5015130;28;20763;-80
2023/08/10 01:38:05;;;;;;;2.90;1.00;;;;;;;;;;5006356;28;20571;-80
2023/08/10 01:40:31;;;;;;;2.20;0.80;;;;;;;;;;5004040;28;20892;-80
2023/08/10 01:42:57;;;;;;;3.07;0.97;;;;;;;;;;5005523;28;20453;-80
2023/08/10 01:45:23;;;;;;;9.43;1.60;;;;;;;;;;5004746;28;20905;-80
2023/08/10 01:47:54;;;;;;;3.90;1.43;;;;;;;;;;5004316;28;20423;-79
2023/08/10 01:50:23;;;;;;;3.00;0.93;;;;;;;;;;5004135;28;20461;-80
2023/08/10 01:52:55;;;;;;;3.90;1.13;;;;;;;;;;5004262;28;20412;-80
2023/08/10 01:55:21;;;;;;;2.57;1.20;;;;;;;;;;5004119;28;20415;-79
2023/08/10 01:57:47;;;;;;;2.00;0.87;;;;;;;;;;5004079;28;20977;-80
2023/08/10 02:00:16;;;;;;;4.33;1.00;;;;;;;;;;5003201;28;20930;-79
2023/08/10 02:02:42;;;;;;;2.90;0.93;;;;;;;;;;5004965;28;20917;-79
2023/08/10 02:05:08;;;;;;;1.90;0.77;;;;;;;;;;5004890;28;20511;-80
2023/08/10 02:07:35;;;;;;;6.30;2.87;;;;;;;;;;5003460;28;20454;-80
2023/08/10 02:10:01;;;;;;;1.70;0.83;;;;;;;;;;5005283;28;20410;-79
2023/08/10 02:12:27;;;;;;;1.60;0.47;;;;;;;;;;5003825;28;20490;-79
2023/08/10 02:14:53;;;;;;;1.87;0.73;;;;;;;;;;5003990;28;20418;-79
2023/08/10 02:17:19;;;;;;;2.97;1.20;;;;;;;;;;5003343;28;20484;-79
2023/08/10 02:19:45;;;;;;;1.93;0.63;;;;;;;;;;5004324;28;20434;-79
2023/08/10 02:22:11;;;;;;;2.13;0.83;;;;;;;;;;5004845;28;20485;-79
2023/08/10 02:24:36;;;;;;;4.33;1.37;;;;;;;;;;5003879;28;20407;-79
2023/08/10 02:27:03;;;;;;;5.33;1.07;;;;;;;;;;5003318;28;20686;-79
2023/08/10 02:29:29;;;;;;;1.40;1.10;;;;;;;;;;5005215;28;20417;-79
2023/08/10 02:31:54;;;;;;;4.83;1.50;;;;;;;;;;5004580;28;20443;-79
2023/08/10 02:34:20;;;;;;;3.63;1.47;;;;;;;;;;5004059;28;20913;-79
2023/08/10 02:36:46;;;;;;;5.03;0.80;;;;;;;;;;5002903;28;20236;-79
2023/08/10 02:39:12;;;;;;;2.50;1.20;;;;;;;;;;5004931;28;20179;-80
2023/08/10 02:41:38;;;;;;;2.33;0.80;;;;;;;;;;5003220;28;20967;-80
2023/08/10 02:44:04;;;;;;;2.00;0.30;;;;;;;;;;5003267;28;20179;-79
2023/08/10 02:46:30;;;;;;;2.77;1.17;;;;;;;;;;5004813;28;20179;-79
2023/08/10 02:48:56;;;;;;;1.63;0.83;;;;;;;;;;5005886;28;20418;-79
2023/08/10 02:51:22;;;;;;;2.63;1.07;;;;;;;;;;5004275;28;20445;-79
2023/08/10 02:53:48;;;;;;;2.60;1.20;;;;;;;;;;5005444;28;20425;-80
2023/08/10 02:56:14;;;;;;;3.47;0.70;;;;;;;;;;5003436;28;20468;-79
2023/08/10 02:58:40;;;;;;;3.93;1.20;;;;;;;;;;5004302;28;20514;-79
2023/08/10 03:01:07;;;;;;;3.10;1.00;;;;;;;;;;5002479;28;20447;-79
2023/08/10 03:03:33;;;;;;;3.60;1.23;;;;;;;;;;5002581;28;20973;-79
2023/08/10 03:05:59;;;;;;;3.27;1.30;;;;;;;;;;5002738;28;20403;-79
2023/08/10 03:08:25;;;;;;;4.30;0.90;;;;;;;;;;5002155;28;20784;-80
2023/08/10 03:10:51;;;;;;;3.77;0.60;;;;;;;;;;5001333;28;20424;-79
2023/08/10 03:13:17;;;;;;;2.07;1.07;;;;;;;;;;5003228;28;20516;-79
2023/08/10 03:15:43;;;;;;;3.40;0.83;;;;;;;;;;5004307;28;20418;-80
2023/08/10 03:18:09;;;;;;;3.97;1.20;;;;;;;;;;5002423;28;20834;-80
2023/08/10 03:20:35;;;;;;;2.57;1.33;;;;;;;;;;5003218;28;20961;-80
2023/08/10 03:23:01;;;;;;;2.67;0.40;;;;;;;;;;5004149;28;20940;-80
2023/08/10 03:25:32;;;;;;;5.43;0.73;;;;;;;;;;5002073;28;20403;-80
2023/08/10 03:27:58;;;;;;;1.50;0.70;;;;;;;;;;5002539;28;20415;-80
2023/08/10 03:30:23;;;;;;;2.93;1.13;;;;;;;;;;5004078;28;20932;-79
2023/08/10 03:32:56;;;;;;;2.33;1.00;;;;;;;;;;5002299;28;20196;-80
2023/08/10 03:35:21;;;;;;;4.20;1.50;;;;;;;;;;5002333;28;20187;-79
2023/08/10 03:37:47;;;;;;;2.70;0.87;;;;;;;;;;5002641;28;20472;-80
2023/08/10 03:40:13;;;;;;;3.60;0.87;;;;;;;;;;5002449;28;20519;-80
2023/08/10 03:42:42;;;;;;;1.60;1.03;;;;;;;;;;5002178;28;20830;-80
2023/08/10 03:45:08;;;;;;;4.33;0.70;;;;;;;;;;5004512;28;20233;-79
2023/08/10 03:47:34;;;;;;;2.97;0.90;;;;;;;;;;5004105;28;20424;-79
2023/08/10 03:50:00;;;;;;;4.10;1.20;;;;;;;;;;5002390;28;20467;-79
2023/08/10 03:52:26;;;;;;;4.00;1.13;;;;;;;;;;5002553;28;20429;-79
2023/08/10 03:54:52;;;;;;;3.43;1.60;;;;;;;;;;5002485;28;20525;-79
2023/08/10 03:57:17;;;;;;;6.40;0.83;;;;;;;;;;5012659;28;20564;-79
2023/08/10 03:59:43;;;;;;;2.47;1.20;;;;;;;;;;5013067;28;20427;-79
2023/08/10 04:02:09;;;;;;;1.80;0.80;;;;;;;;;;5012988;28;20461;-79
2023/08/10 04:04:35;;;;;;;2.83;0.80;;;;;;;;;;5013029;28;20176;-79
2023/08/10 04:07:01;;;;;;;3.83;1.43;;;;;;;;;;5012958;28;20188;-79
2023/08/10 04:09:27;;;;;;;1.90;1.10;;;;;;;;;;5013006;28;20770;-80
2023/08/10 04:11:53;;;;;;;2.40;1.03;;;;;;;;;;5012591;28;20587;-79
2023/08/10 04:14:19;;;;;;;4.20;1.53;;;;;;;;;;5010986;28;20423;-79
2023/08/10 04:16:45;;;;;;;2.87;1.33;;;;;;;;;;5012731;28;20218;-79
2023/08/10 04:19:11;;;;;;;2.27;1.20;;;;;;;;;;5012798;28;20422;-79
2023/08/10 04:21:39;;;;;;;1.40;0.70;;;;;;;;;;5012851;28;20406;-79
2023/08/10 04:24:05;;;;;;;3.17;1.40;;;;;;;;;;5012530;28;20422;-79
2023/08/10 04:26:31;;;;;;;1.60;0.87;;;;;;;;;;5012449;28;20699;-79
2023/08/10 04:28:57;;;;;;;4.37;1.23;;;;;;;;;;5012695;28;20415;-79
2023/08/10 04:31:23;;;;;;;5.10;2.00;;;;;;;;;;5012806;28;20212;-79
2023/08/10 04:33:49;;;;;;;6.70;1.57;;;;;;;;;;5015279;28;20409;-79
2023/08/10 04:36:15;;;;;;;2.70;1.23;;;;;;;;;;5016354;28;20503;-79
2023/08/10 04:38:41;;;;;;;2.30;1.00;;;;;;;;;;5016388;28;20862;-78
2023/08/10 04:41:07;;;;;;;4.80;1.50;;;;;;;;;;5016002;28;20450;-79
2023/08/10 04:43:33;;;;;;;3.70;1.40;;;;;;;;;;5015552;28;20822;-79
2023/08/10 04:45:59;;;;;;;5.00;1.67;;;;;;;;;;5016243;28;20436;-79
2023/08/10 04:48:25;;;;;;;2.00;1.60;;;;;;;;;;5014878;28;20195;-79
2023/08/10 04:50:51;;;;;;;3.77;1.40;;;;;;;;;;5015013;28;20177;-79
2023/08/10 04:53:17;;;;;;;2.63;0.77;;;;;;;;;;5016285;28;20420;-79
2023/08/10 04:55:43;;;;;;;5.23;2.47;;;;;;;;;;5015704;28;20415;-79
2023/08/10 04:58:09;;;;;;;6.43;2.03;;;;;;;;;;5015961;28;20470;-79
2023/08/10 05:00:35;;;;;;;2.30;1.10;;;;;;;;;;5015912;28;20413;-79
2023/08/10 05:03:01;;;;;;;1.90;1.37;;;;;;;;;;5015929;28;20430;-79
2023/08/10 05:05:27;;;;;;;2.90;1.53;;;;;;;;;;5015970;28;20523;-79
2023/08/10 05:07:53;;;;;;;2.60;0.80;;;;;;;;;;5014624;28;20991;-79
2023/08/10 05:10:19;;;;;;;4.43;1.60;;;;;;;;;;5015824;28;20900;-79
2023/08/10 05:12:45;;;;;;;2.60;1.17;;;;;;;;;;5015471;28;20175;-79
2023/08/10 05:15:11;;;;;;;4.10;1.53;;;;;;;;;;5015787;28;20419;-79
2023/08/10 05:17:38;;;;;;;1.97;0.97;;;;;;;;;;5015559;28;20620;-79
2023/08/10 05:20:10;;;;;;;2.87;1.10;;;;;;;;;;5015622;28;20423;-79
2023/08/10 05:22:36;;;;;;;2.40;1.20;;;;;;;;;;5015679;28;20416;-79
2023/08/10 05:25:02;;;;;;;2.87;1.50;;;;;;;;;;5015594;28;20414;-79
2023/08/10 05:27:28;;;;;;;3.40;0.77;;;;;;;;;;5013938;28;20449;-79
2023/08/10 05:29:54;;;;;;;3.77;1.93;;;;;;;;;;5015405;28;20428;-79
2023/08/10 05:32:20;;;;;;;2.33;0.70;;;;;;;;;;5015454;28;20181;-79
2023/08/10 05:34:46;;;;;;;3.47;1.50;;;;;;;;;;5014050;28;20427;-79
2023/08/10 05:37:12;;;;;;;3.40;1.40;;;;;;;;;;5015312;28;20211;-80
2023/08/10 05:39:38;;;;;;;3.70;1.17;;;;;;;;;;5015376;28;20412;-80
2023/08/10 05:42:04;;;;;;;2.60;0.93;;;;;;;;;;5013587;28;20687;-80
2023/08/10 05:44:30;;;;;;;2.00;0.60;;;;;;;;;;5013923;28;20926;-79
2023/08/10 05:46:56;;;;;;;1.80;1.20;;;;;;;;;;5015144;28;20420;-79
2023/08/10 05:49:22;;;;;;;6.00;1.63;;;;;;;;;;5015073;28;20433;-80
2023/08/10 05:51:48;;;;;;;3.87;0.90;;;;;;;;;;5015010;28;20501;-79
2023/08/10 05:54:14;;;;;;;4.87;1.27;;;;;;;;;;5015148;28;20170;-79
2023/08/10 05:56:40;;;;;;;2.50;0.50;;;;;;;;;;5014550;28;20830;-80
2023/08/10 05:59:06;;;;;;;5.43;0.90;;;;;;;;;;5014845;28;20411;-80
2023/08/10 06:01:32;;;;;;;2.70;0.50;;;;;;;;;;5014910;28;20183;-80
2023/08/10 06:03:59;;;;;;;3.57;0.83;;;;;;;;;;5014712;28;20838;-80
2023/08/10 06:06:25;;;;;;;6.20;0.60;;;;;;;;;;5014809;28;20631;-80
2023/08/10 06:08:51;;;;;;;3.50;1.00;;;;;;;;;;5014740;28;20412;-80
2023/08/10 06:11:17;;;;;;;3.47;0.73;;;;;;;;;;5014343;28;20182;-80
2023/08/10 06:13:43;;;;;;;4.73;0.63;;;;;;;;;;5013392;28;20563;-80
2023/08/10 06:16:09;;;;;;;6.50;0.80;;;;;;;;;;5014477;28;20174;-81
2023/08/10 06:18:35;;;;;;;6.67;1.00;;;;;;;;;;5014565;28;20844;-80
2023/08/10 06:21:03;;;;;;;4.33;0.90;;;;;;;;;;5014437;28;20506;-80
2023/08/10 06:23:29;;;;;;;1.87;0.40;;;;;;;;;;5014481;28;20187;-81
2023/08/10 06:25:55;;;;;;;5.97;0.90;;;;;;;;;;5013993;28;20903;-80
2023/08/10 06:28:21;;;;;;;6.43;0.60;;;;;;;;;;5012779;28;20416;-81
2023/08/10 06:30:47;;;;;;;3.00;0.60;;;;;;;;;;5013831;28;20208;-81
2023/08/10 06:33:13;;;;;;;6.00;0.60;;;;;;;;;;5014272;28;20632;-81
2023/08/10 06:35:39;;;;;;;8.13;0.40;;;;;;;;;;5014182;28;20414;-80
2023/08/10 06:38:05;;;;;;;2.47;0.40;;;;;;;;;;5014163;28;20591;-81
2023/08/10 06:40:32;;;;;;;2.70;0.60;;;;;;;;;;5013627;28;20441;-81
2023/08/10 06:42:58;;;;;;;3.73;0.60;;;;;;;;;;5012818;28;20429;-81
2023/08/10 06:45:24;;;;;;;2.07;0.53;;;;;;;;;;5014124;28;20712;-81
2023/08/10 06:47:50;;;;;;;4.13;0.67;;;;;;;;;;5013976;28;20413;-81
2023/08/10 06:50:16;;;;;;;2.43;0.60;;;;;;;;;;5013993;28;20437;-79
2023/08/10 06:52:42;;;;;;;3.73;0.70;;;;;;;;;;5013962;28;20924;-82
2023/08/10 06:55:11;;;;;;;2.33;0.57;;;;;;;;;;5013591;28;20410;-82
2023/08/10 06:57:37;;;;;;;5.03;0.97;;;;;;;;;;5013592;28;20473;-79
2023/08/10 07:00:07;;;;;;;4.67;0.77;;;;;;;;;;5013721;28;20753;-79
2023/08/10 07:02:33;;;;;;;2.87;0.63;;;;;;;;;;5013863;28;20175;-80
2023/08/10 07:04:59;;;;;;;3.33;0.37;;;;;;;;;;5013670;28;20898;-79
2023/08/10 07:07:25;;;;;;;3.60;0.50;;;;;;;;;;5013646;28;20436;-79
2023/08/10 07:09:50;;;;;;;5.60;1.00;;;;;;;;;;5013607;28;20171;-80
2023/08/10 07:12:17;;;;;;;5.43;0.80;;;;;;;;;;5013143;28;20265;-79
2023/08/10 07:14:43;;;;;;;3.57;1.10;;;;;;;;;;5013503;28;20406;-80
2023/08/10 07:17:09;;;;;;;4.30;0.80;;;;;;;;;;5012157;28;20499;-80
2023/08/10 07:19:36;;;;;;;5.37;0.33;;;;;;;;;;5013460;28;20628;-80
2023/08/10 07:22:02;;;;;;;8.20;0.73;;;;;;;;;;5013590;28;20234;-79
2023/08/10 07:24:31;;;;;;;3.53;0.57;;;;;;;;;;5012242;28;20513;-80
2023/08/10 07:26:57;;;;;;;4.87;1.00;;;;;;;;;;5011799;28;20505;-82
2023/08/10 07:29:23;;;;;;;4.80;0.70;;;;;;;;;;5012128;28;20493;-79
2023/08/10 07:31:49;;;;;;;3.90;1.00;;;;;;;;;;5013286;28;20178;-79
2023/08/10 07:34:16;;;;;;;2.97;0.40;;;;;;;;;;5013495;28;20406;-80
2023/08/10 07:36:43;;;;;;;4.10;0.83;;;;;;;;;;5013189;28;20552;-82
2023/08/10 07:39:09;;;;;;;3.23;0.70;;;;;;;;;;5012014;28;20541;-82
2023/08/10 07:41:35;;;;;;;3.60;1.00;;;;;;;;;;5012765;28;20466;-82
2023/08/10 07:44:01;;;;;;;1.43;0.37;;;;;;;;;;5013841;28;20182;-82
2023/08/10 07:46:27;;;;;;;4.23;0.70;;;;;;;;;;5013136;28;20194;-79
2023/08/10 07:48:53;;;;;;;2.73;0.40;;;;;;;;;;5013132;28;20178;-80
2023/08/10 07:51:18;;;;;;;3.33;0.40;;;;;;;;;;5005496;28;20411;-79
2023/08/10 07:53:44;;;;;;;1.73;0.53;;;;;;;;;;4993440;28;20422;-79
2023/08/10 07:56:11;;;;;;;2.43;0.40;;;;;;;;;;4993065;28;20657;-79
2023/08/10 07:58:37;;;;;;;4.53;0.40;;;;;;;;;;4993399;28;20176;-79
2023/08/10 08:01:09;;;;;;;2.67;0.20;;;;;;;;;;5001237;28;20948;-80
2023/08/10 08:03:35;;;;;;;3.57;0.50;;;;;;;;;;5013173;28;20175;-80
2023/08/10 08:06:01;;;;;;;3.30;0.40;;;;;;;;;;5011735;28;20829;-79
2023/08/10 08:08:30;;;;;;;2.43;0.50;;;;;;;;;;5015174;28;20409;-79
2023/08/10 08:10:56;;;;;;;1.33;0.50;;;;;;;;;;5016636;28;20402;-79
2023/08/10 08:13:22;;;;;;;2.43;0.47;;;;;;;;;;5016994;28;20410;-79
2023/08/10 08:15:48;;;;;;;2.17;0.30;;;;;;;;;;5016982;28;20414;-80
2023/08/10 08:18:34;;;;;;;2.50;0.40;;;;;;;;;;5016791;28;20873;-79
2023/08/10 08:21:00;;;;;;;4.77;1.10;;;;;;;;;;5017156;28;20421;-79
2023/08/10 08:23:26;;;;;;;4.90;0.60;;;;;;;;;;5016687;28;20413;-79
2023/08/10 08:25:52;;;;;;;3.23;0.40;;;;;;;;;;5014971;28;20431;-79
2023/08/10 08:28:18;;;;;;;2.57;0.43;;;;;;;;;;5016682;28;20233;-79
2023/08/10 08:30:44;;;;;;;4.37;0.63;;;;;;;;;;5015342;28;20186;-78
2023/08/10 08:33:10;;;;;;;6.43;0.67;;;;;;;;;;5016523;28;20183;-79
2023/08/10 08:35:36;;;;;;;2.00;0.30;;;;;;;;;;5016528;28;20229;-80
2023/08/10 08:38:02;;;;;;;2.40;0.50;;;;;;;;;;5016276;28;20477;-79
2023/08/10 08:40:28;;;;;;;4.73;0.77;;;;;;;;;;5012959;28;20270;-80
2023/08/10 08:42:55;;;;;;;3.97;0.83;;;;;;;;;;5005089;28;20175;-81
2023/08/10 08:45:21;;;;;;;4.20;0.70;;;;;;;;;;5013483;28;20183;-81
2023/08/10 08:47:47;;;;;;;3.80;0.50;;;;;;;;;;5016309;28;20815;-80
2023/08/10 08:50:15;;;;;;;3.87;0.80;;;;;;;;;;5014713;28;20420;-80
2023/08/10 08:52:42;;;;;;;2.33;0.57;;;;;;;;;;5008870;28;20604;-80
2023/08/10 08:55:08;;;;;;;4.53;1.10;;;;;;;;;;5005828;28;20923;-81
2023/08/10 08:57:34;;;;;;;2.90;0.77;;;;;;;;;;5010191;28;20973;-79
2023/08/10 09:00:01;;;;;;;12.60;1.63;;;;;;;;;;5006729;28;20421;-81
2023/08/10 09:02:27;;;;;;;4.50;1.13;;;;;;;;;;5006155;28;20426;-80
2023/08/10 09:04:59;;;;;;;2.27;0.50;;;;;;;;;;5004785;28;20513;-81
2023/08/10 09:07:25;;;;;;;1.90;0.50;;;;;;;;;;5011011;28;20465;-81
2023/08/10 09:09:51;;;;;;;4.70;0.90;;;;;;;;;;5005958;28;20505;-79
2023/08/10 09:12:33;;;;;;;4.03;1.00;;;;;;;;;;5005868;28;20406;-80
2023/08/10 09:15:03;;;;;;;6.57;1.00;;;;;;;;;;5005686;28;20411;-79
2023/08/10 09:17:30;;;;;;;3.97;0.97;;;;;;;;;;5004326;28;20551;-81
2023/08/10 09:19:55;;;;;;;5.70;0.70;;;;;;;;;;5005591;28;20477;-80
2023/08/10 09:22:31;;;;;;;5.07;1.90;;;;;;;;;;5005885;28;20453;-80
2023/08/10 09:24:57;;;;;;;4.57;0.90;;;;;;;;;;5007787;28;20182;-81
2023/08/10 09:27:33;;;;;;;2.60;0.70;;;;;;;;;;5010607;28;20434;-81
2023/08/10 09:30:00;;;;;;;3.80;0.57;;;;;;;;;;5012550;28;20281;-81
2023/08/10 09:32:29;;;;;;;4.27;0.57;;;;;;;;;;5013251;28;20427;-80
2023/08/10 09:34:55;;;;;;;4.10;0.90;;;;;;;;;;5013733;28;20513;-81
2023/08/10 09:37:23;;;;;;;4.43;0.83;;;;;;;;;;5015518;28;20465;-81
2023/08/10 09:39:53;;;;;;;2.70;1.17;;;;;;;;;;5015118;28;20421;-80
2023/08/10 09:42:19;;;;;;;3.43;0.60;;;;;;;;;;5015379;28;20417;-82
2023/08/10 09:44:46;;;;;;;3.10;0.60;;;;;;;;;;5015211;28;20443;-80
2023/08/10 09:47:13;;;;;;;4.50;0.93;;;;;;;;;;5015253;28;20520;-81
2023/08/10 09:49:46;;;;;;;3.60;0.70;;;;;;;;;;5015148;28;20410;-82
2023/08/10 09:52:12;;;;;;;3.53;1.00;;;;;;;;;;5015000;28;20924;-82
2023/08/10 09:54:39;;;;;;;2.37;0.83;;;;;;;;;;5015054;28;20429;-81
2023/08/10 09:57:05;;;;;;;3.53;0.83;;;;;;;;;;5014641;28;20826;-81
2023/08/10 09:59:31;;;;;;;4.30;1.07;;;;;;;;;;5015055;28;20414;-82
2023/08/10 10:01:58;;;;;;;4.10;0.83;;;;;;;;;;5014891;28;20521;-81
2023/08/10 10:04:28;;;;;;;4.10;0.63;;;;;;;;;;5014943;28;20218;-81
2023/08/10 10:06:56;;;;;;;3.63;0.70;;;;;;;;;;5014873;28;20910;-82
2023/08/10 10:09:21;;;;;;;3.80;1.23;;;;;;;;;;5014845;28;20429;-81
2023/08/10 10:11:49;;;;;;;3.93;0.50;;;;;;;;;;5014418;28;20410;-81
2023/08/10 10:14:15;;;;;;;4.93;1.47;;;;;;;;;;5014738;28;20627;-80
2023/08/10 10:16:41;;;;;;;3.77;0.60;;;;;;;;;;5014636;28;20465;-82
2023/08/10 10:19:08;;;;;;;3.77;1.00;;;;;;;;;;5014651;28;20426;-81
2023/08/10 10:21:34;;;;;;;2.60;0.47;;;;;;;;;;5014666;28;20167;-81
2023/08/10 10:24:03;;;;;;;3.97;0.90;;;;;;;;;;5014526;28;20430;-81
2023/08/10 10:26:29;;;;;;;4.40;0.70;;;;;;;;;;5014243;28;20171;-80
2023/08/10 10:29:11;;;;;;;4.10;0.60;;;;;;;;;;5014578;28;20764;-80
2023/08/10 10:31:37;;;;;;;6.13;0.97;;;;;;;;;;5013794;28;20171;-81
2023/08/10 10:34:04;;;;;;;3.67;0.70;;;;;;;;;;5014452;28;20421;-81
2023/08/10 10:36:32;;;;;;;3.63;0.50;;;;;;;;;;5014300;28;20465;-81
2023/08/10 10:39:11;;;;;;;3.17;0.40;;;;;;;;;;5014429;28;20414;-80
2023/08/10 10:41:40;;;;;;;3.30;0.83;;;;;;;;;;5012521;28;20485;-81
2023/08/10 10:44:06;;;;;;;4.33;0.63;;;;;;;;;;5014191;28;20491;-80
2023/08/10 10:46:32;;;;;;;3.97;0.70;;;;;;;;;;5014165;28;20457;-80
2023/08/10 10:48:58;;;;;;;3.60;0.70;;;;;;;;;;5014009;28;20906;-81
2023/08/10 10:51:25;;;;;;;4.53;0.60;;;;;;;;;;5014078;28;20198;-80
2023/08/10 10:53:54;;;;;;;5.23;1.40;;;;;;;;;;5013981;28;20501;-81
2023/08/10 10:56:20;;;;;;;4.83;1.23;;;;;;;;;;5013659;28;20473;-80
2023/08/10 10:58:47;;;;;;;5.80;1.17;;;;;;;;;;5014090;28;20828;-81
2023/08/10 11:01:13;;;;;;;3.37;0.70;;;;;;;;;;5012657;28;20414;-80
2023/08/10 11:03:42;;;;;;;3.83;0.60;;;;;;;;;;5013907;28;20425;-81
2023/08/10 11:06:15;;;;;;;3.47;0.80;;;;;;;;;;5013759;28;20418;-84
2023/08/10 11:08:41;;;;;;;3.00;0.50;;;;;;;;;;5013879;28;20897;-81
2023/08/10 11:11:07;;;;;;;3.63;0.80;;;;;;;;;;5013348;28;20441;-81
2023/08/10 11:13:33;;;;;;;2.83;0.50;;;;;;;;;;5013706;28;20176;-81
2023/08/10 11:15:59;;;;;;;2.80;0.60;;;;;;;;;;5013716;28;20436;-82
2023/08/10 11:18:26;;;;;;;6.00;0.83;;;;;;;;;;5013651;28;20218;-82
2023/08/10 11:20:52;;;;;;;6.23;1.60;;;;;;;;;;5013590;28;20421;-81
2023/08/10 11:23:18;;;;;;;3.40;0.80;;;;;;;;;;5013711;28;20417;-81
2023/08/10 11:25:49;;;;;;;3.93;0.57;;;;;;;;;;5013210;28;20623;-81
2023/08/10 11:28:16;;;;;;;6.57;0.77;;;;;;;;;;5013533;28;20445;-81
2023/08/10 11:30:43;;;;;;;2.83;0.43;;;;;;;;;;5013515;28;20420;-82
2023/08/10 11:33:15;;;;;;;5.60;1.07;;;;;;;;;;5013500;28;20437;-82
2023/08/10 11:35:50;;;;;;;3.07;0.77;;;;;;;;;;5013370;28;20489;-81
2023/08/10 11:38:16;;;;;;;6.07;0.83;;;;;;;;;;5013378;28;20492;-81
2023/08/10 11:40:42;;;;;;;2.97;0.60;;;;;;;;;;5011492;28;20497;-82
2023/08/10 11:43:11;;;;;;;3.80;0.73;;;;;;;;;;5013340;28;20624;-82
2023/08/10 11:45:37;;;;;;;3.60;0.60;;;;;;;;;;5013314;28;20171;-81
2023/08/10 11:48:16;;;;;;;3.67;1.60;;;;;;;;;;5013246;28;20445;-83
2023/08/10 11:50:43;;;;;;;2.60;0.50;;;;;;;;;;5013355;28;20436;-82
2023/08/10 11:53:12;;;;;;;1.70;0.70;;;;;;;;;;5013184;28;20410;-81
2023/08/10 11:55:41;;;;;;;2.70;0.57;;;;;;;;;;5012848;28;20410;-81
2023/08/10 11:58:08;;;;;;;4.70;1.60;;;;;;;;;;5013140;28;20549;-81
2023/08/10 12:00:38;;;;;;;5.17;0.73;;;;;;;;;;5013218;28;20406;-82
2023/08/10 12:03:06;;;;;;;1.90;0.50;;;;;;;;;;5013088;28;20501;-81
2023/08/10 12:05:36;;;;;;;2.30;0.50;;;;;;;;;;5012905;28;20413;-81
2023/08/10 12:08:02;;;;;;;2.60;0.97;;;;;;;;;;5013243;28;20417;-82
2023/08/10 12:10:36;;;;;;;3.40;0.87;;;;;;;;;;5012702;28;20414;-81
2023/08/10 12:13:02;;;;;;;4.17;0.70;;;;;;;;;;5013049;28;20412;-81
2023/08/10 12:15:30;;;;;;;5.17;1.10;;;;;;;;;;5013001;28;20406;-81
2023/08/10 12:17:56;;;;;;;3.70;0.57;;;;;;;;;;5012929;28;20472;-82
2023/08/10 12:20:22;;;;;;;3.63;1.33;;;;;;;;;;5013019;28;20414;-81
2023/08/10 12:22:48;;;;;;;3.27;0.70;;;;;;;;;;5012976;28;20201;-81
2023/08/10 12:25:20;;;;;;;3.30;0.60;;;;;;;;;;5012667;28;20406;-81
2023/08/10 12:27:46;;;;;;;2.10;0.70;;;;;;;;;;5012961;28;20262;-81
2023/08/10 12:30:12;;;;;;;2.87;0.53;;;;;;;;;;5012890;28;20405;-81
2023/08/10 12:32:38;;;;;;;3.33;0.40;;;;;;;;;;5012916;28;20418;-83
2023/08/10 12:35:07;;;;;;;4.47;1.00;;;;;;;;;;5012804;28;20261;-82
2023/08/10 12:37:33;;;;;;;3.23;0.80;;;;;;;;;;5012713;28;20214;-82
2023/08/10 12:39:59;;;;;;;3.00;0.80;;;;;;;;;;5012267;28;20414;-82
2023/08/10 12:42:25;;;;;;;2.43;0.67;;;;;;;;;;5012810;28;20178;-82
2023/08/10 12:44:51;;;;;;;4.37;0.33;;;;;;;;;;5012832;28;20171;-82
2023/08/10 12:47:18;;;;;;;3.20;0.40;;;;;;;;;;5011632;28;20175;-81
2023/08/10 12:49:44;;;;;;;3.00;0.50;;;;;;;;;;5012684;28;20423;-81
2023/08/10 12:52:10;;;;;;;3.23;0.73;;;;;;;;;;5012656;28;20417;-82
2023/08/10 12:54:36;;;;;;;5.13;1.07;;;;;;;;;;5014478;28;20229;-82
2023/08/10 12:57:02;;;;;;;4.07;1.03;;;;;;;;;;5016123;28;20500;-81
2023/08/10 12:59:28;;;;;;;1.00;0.37;;;;;;;;;;5016288;28;20426;-82
2023/08/10 13:01:57;;;;;;;5.27;1.57;;;;;;;;;;5016208;28;20413;-81
2023/08/10 13:04:23;;;;;;;7.10;1.20;;;;;;;;;;5014841;28;20183;-81
2023/08/10 13:06:49;;;;;;;2.97;0.77;;;;;;;;;;5015988;28;20501;-82
2023/08/10 13:09:16;;;;;;;5.10;1.10;;;;;;;;;;5015616;28;20175;-81
2023/08/10 13:11:42;;;;;;;2.93;0.87;;;;;;;;;;5015973;28;20414;-82
2023/08/10 13:14:08;;;;;;;3.33;1.23;;;;;;;;;;5015909;28;20448;-81
2023/08/10 13:16:34;;;;;;;2.07;0.60;;;;;;;;;;5015718;28;20171;-81
2023/08/10 13:18:59;;;;;;;3.50;1.07;;;;;;;;;;5015794;28;20266;-81
2023/08/10 13:21:25;;;;;;;2.63;0.60;;;;;;;;;;5015946;28;20171;-81
2023/08/10 13:23:51;;;;;;;4.37;0.60;;;;;;;;;;5015685;28;20585;-81
2023/08/10 13:26:17;;;;;;;3.73;1.00;;;;;;;;;;5015341;28;20177;-82
2023/08/10 13:28:43;;;;;;;3.70;0.70;;;;;;;;;;5015611;28;20246;-81
2023/08/10 13:31:09;;;;;;;2.23;0.60;;;;;;;;;;5015560;28;20375;-81
2023/08/10 13:33:35;;;;;;;3.67;1.03;;;;;;;;;;5015510;28;20274;-81
2023/08/10 13:36:01;;;;;;;3.63;0.43;;;;;;;;;;5015453;28;20167;-80
2023/08/10 13:38:33;;;;;;;5.33;0.63;;;;;;;;;;5015368;28;20476;-80
2023/08/10 13:41:02;;;;;;;2.67;0.40;;;;;;;;;;5013581;28;20925;-80
2023/08/10 13:43:28;;;;;;;2.10;0.40;;;;;;;;;;5013892;28;20429;-81
2023/08/10 13:45:54;;;;;;;3.43;0.50;;;;;;;;;;5015355;28;20410;-81
2023/08/10 13:48:23;;;;;;;5.50;0.77;;;;;;;;;;5013844;28;20424;-81
2023/08/10 13:50:53;;;;;;;3.00;0.67;;;;;;;;;;5015145;28;20190;-80
2023/08/10 13:53:19;;;;;;;2.60;0.47;;;;;;;;;;5015154;28;20929;-80
2023/08/10 13:55:45;;;;;;;1.40;0.33;;;;;;;;;;5014694;28;20406;-81
2023/08/10 13:58:11;;;;;;;3.63;0.77;;;;;;;;;;5014916;28;20238;-82
2023/08/10 14:00:38;;;;;;;3.90;1.10;;;;;;;;;;5015424;28;20410;-81
2023/08/10 14:03:04;;;;;;;4.97;0.73;;;;;;;;;;5014873;28;20175;-81
2023/08/10 14:05:32;;;;;;;3.13;0.83;;;;;;;;;;5014011;28;20410;-81
2023/08/10 14:07:58;;;;;;;6.00;1.40;;;;;;;;;;5014756;28;20422;-80
2023/08/10 14:10:24;;;;;;;3.43;0.27;;;;;;;;;;5014630;28;20493;-81
2023/08/10 14:12:53;;;;;;;4.77;0.67;;;;;;;;;;5019771;28;20428;-81
2023/08/10 14:15:22;;;;;;;3.30;0.50;;;;;;;;;;5019133;28;20217;-81
2023/08/10 14:17:53;;;;;;;3.57;0.60;;;;;;;;;;5014643;28;20824;-81
2023/08/10 14:20:18;;;;;;;3.17;0.80;;;;;;;;;;5014697;28;20406;-80
2023/08/10 14:22:44;;;;;;;2.63;0.63;;;;;;;;;;5014636;28;21039;-80
2023/08/10 14:25:10;;;;;;;2.40;0.53;;;;;;;;;;5012859;28;20178;-80
2023/08/10 14:27:39;;;;;;;2.50;1.10;;;;;;;;;;5014421;28;20464;-81
2023/08/10 14:30:08;;;;;;;3.90;0.70;;;;;;;;;;5014544;28;20785;-80
2023/08/10 14:32:34;;;;;;;3.20;0.67;;;;;;;;;;5014333;28;20433;-80
2023/08/10 14:35:00;;;;;;;3.83;0.30;;;;;;;;;;5014405;28;20421;-82
2023/08/10 14:37:26;;;;;;;2.53;0.50;;;;;;;;;;5014245;28;20457;-79
2023/08/10 14:39:52;;;;;;;4.20;0.70;;;;;;;;;;5013779;28;20179;-80
2023/08/10 14:42:18;;;;;;;3.10;0.50;;;;;;;;;;5014187;28;20422;-81